Time,TemperatureF,DewpointF,PressureIn,WindDirection,WindDirectionDegrees,WindSpeedMPH,WindSpeedGustMPH,Humidity,HourlyPrecipIn,Conditions,Clouds,dailyrainin,SolarRadiationWatts/m^2,SoftwareType,DateUTC
2013-06-23 00:02:00,72.4,71.8,30.01,West,267,0.0,0.0,98,0.00,,,1.34,0,Wunderground v.1.15,2013-06-23 05:02:00,
2013-06-23 00:08:00,72.5,71.9,30.01,West,267,0.0,0.0,98,0.00,,,1.34,0,Wunderground v.1.15,2013-06-23 05:08:00,
2013-06-23 00:14:00,72.5,71.9,30.01,West,267,0.0,0.0,98,0.00,,,1.34,0,Wunderground v.1.15,2013-06-23 05:14:00,
2013-06-23 00:19:00,72.6,72.0,30.01,West,267,0.0,0.0,98,0.00,,,1.34,0,Wunderground v.1.15,2013-06-23 05:19:00,
2013-06-23 00:24:00,72.7,72.1,30.01,West,267,0.0,0.0,98,0.00,,,1.34,0,Wunderground v.1.15,2013-06-23 05:24:00,
2013-06-23 00:30:00,72.8,72.2,30.01,West,267,0.0,0.0,98,0.00,,,1.34,0,Wunderground v.1.15,2013-06-23 05:30:00,
2013-06-23 00:50:00,72.9,72.0,30.00,West,267,0.0,0.0,97,0.00,,,1.34,0,Wunderground v.1.15,2013-06-23 05:50:00,
2013-06-23 00:56:00,72.8,71.9,30.00,West,267,0.0,0.0,97,0.00,,,1.34,0,Wunderground v.1.15,2013-06-23 05:56:00,
2013-06-23 01:01:00,72.8,71.9,30.00,West,267,0.0,0.0,97,0.00,,,1.34,0,Wunderground v.1.15,2013-06-23 06:01:00,
2013-06-23 01:02:00,72.8,71.9,30.00,West,267,0.0,0.0,97,0.00,,,1.34,0,Wunderground v.1.15,2013-06-23 06:02:00,
2013-06-23 01:11:00,72.9,72.0,30.00,West,267,0.0,0.0,97,0.00,,,1.34,0,Wunderground v.1.15,2013-06-23 06:11:00,
2013-06-23 01:22:00,72.9,72.0,30.00,West,267,0.0,0.0,97,0.00,,,1.34,0,Wunderground v.1.15,2013-06-23 06:22:00,
2013-06-23 01:32:00,72.8,71.9,30.00,West,267,0.0,0.0,97,0.00,,,1.35,0,Wunderground v.1.15,2013-06-23 06:32:00,
2013-06-23 01:38:00,72.8,71.9,30.00,West,267,0.0,0.0,97,0.00,,,1.35,0,Wunderground v.1.15,2013-06-23 06:38:00,
2013-06-23 01:44:00,72.8,72.2,30.00,West,267,0.0,0.0,98,0.00,,,1.35,0,Wunderground v.1.15,2013-06-23 06:44:00,
2013-06-23 01:53:00,72.8,71.9,30.00,West,267,0.0,0.0,97,0.00,,,1.35,0,Wunderground v.1.15,2013-06-23 06:53:00,
2013-06-23 01:59:00,72.8,72.2,30.00,West,267,0.0,0.0,98,0.00,,,1.35,0,Wunderground v.1.15,2013-06-23 06:59:00,
2013-06-23 02:04:00,72.7,72.1,29.99,West,267,0.0,0.0,98,0.00,,,1.35,0,Wunderground v.1.15,2013-06-23 07:04:00,
2013-06-23 02:14:00,72.6,72.0,29.99,West,267,0.0,0.0,98,0.00,,,1.35,0,Wunderground v.1.15,2013-06-23 07:14:00,
2013-06-23 02:24:00,72.5,71.9,29.99,West,267,0.0,0.0,98,0.00,,,1.35,0,Wunderground v.1.15,2013-06-23 07:24:00,
2013-06-23 02:34:00,72.3,71.4,29.99,West,267,0.0,0.0,97,0.00,,,1.35,0,Wunderground v.1.15,2013-06-23 07:34:00,
2013-06-23 02:40:00,72.2,71.3,29.99,West,267,0.0,0.0,97,0.00,,,1.35,0,Wunderground v.1.15,2013-06-23 07:40:00,
2013-06-23 02:54:00,72.0,71.4,29.99,West,267,0.0,0.0,98,0.00,,,1.35,0,Wunderground v.1.15,2013-06-23 07:54:00,
2013-06-23 03:00:00,71.9,71.3,29.99,West,267,0.0,0.0,98,0.00,,,1.35,0,Wunderground v.1.15,2013-06-23 08:00:00,
2013-06-23 03:05:00,71.8,71.2,29.99,West,267,0.0,0.0,98,0.00,,,1.35,0,Wunderground v.1.15,2013-06-23 08:05:00,
2013-06-23 03:15:00,71.6,71.0,29.99,West,267,0.0,0.0,98,0.00,,,1.35,0,Wunderground v.1.15,2013-06-23 08:15:00,
2013-06-23 03:25:00,71.3,70.7,29.99,West,267,0.0,0.0,98,0.00,,,1.35,0,Wunderground v.1.15,2013-06-23 08:25:00,
2013-06-23 03:36:00,71.2,70.6,29.99,West,267,0.0,0.0,98,0.00,,,1.35,0,Wunderground v.1.15,2013-06-23 08:36:00,
2013-06-23 03:41:00,71.1,70.5,29.99,West,267,0.0,0.0,98,0.00,,,1.35,0,Wunderground v.1.15,2013-06-23 08:41:00,
2013-06-23 03:47:00,71.0,70.4,29.99,West,267,0.0,0.0,98,0.00,,,1.35,0,Wunderground v.1.15,2013-06-23 08:47:00,
2013-06-23 03:53:00,70.9,70.3,29.99,West,267,0.0,0.0,98,0.00,,,1.35,0,Wunderground v.1.15,2013-06-23 08:53:00,
2013-06-23 03:58:00,70.9,70.3,29.99,West,267,0.0,0.0,98,0.00,,,1.35,0,Wunderground v.1.15,2013-06-23 08:58:00,
2013-06-23 04:04:00,70.8,70.2,29.99,West,267,0.0,0.0,98,0.00,,,1.35,0,Wunderground v.1.15,2013-06-23 09:04:00,
2013-06-23 04:09:00,70.7,70.1,29.99,West,267,0.0,0.0,98,0.00,,,1.35,0,Wunderground v.1.15,2013-06-23 09:09:00,
2013-06-23 04:15:00,70.6,70.0,29.99,West,267,0.0,0.0,98,0.00,,,1.35,0,Wunderground v.1.15,2013-06-23 09:15:00,
2013-06-23 04:21:00,70.6,70.0,29.99,West,267,0.0,0.0,98,0.00,,,1.35,0,Wunderground v.1.15,2013-06-23 09:21:00,
2013-06-23 04:27:00,70.5,69.9,29.99,West,267,0.0,0.0,98,0.00,,,1.35,0,Wunderground v.1.15,2013-06-23 09:27:00,
2013-06-23 04:32:00,70.4,69.8,30.00,West,267,0.0,0.0,98,0.00,,,1.35,0,Wunderground v.1.15,2013-06-23 09:32:00,
2013-06-23 04:37:00,70.4,69.8,30.00,West,267,0.0,0.0,98,0.00,,,1.35,0,Wunderground v.1.15,2013-06-23 09:37:00,
2013-06-23 04:43:00,70.4,69.8,30.00,West,267,0.0,0.0,98,0.00,,,1.35,0,Wunderground v.1.15,2013-06-23 09:43:00,
2013-06-23 04:48:00,70.3,69.7,30.00,West,267,0.0,0.0,98,0.00,,,1.35,0,Wunderground v.1.15,2013-06-23 09:48:00,
2013-06-23 04:54:00,70.3,69.7,30.00,West,267,0.0,0.0,98,0.00,,,1.35,0,Wunderground v.1.15,2013-06-23 09:54:00,
2013-06-23 04:59:00,70.2,69.6,30.00,West,267,0.0,0.0,98,0.00,,,1.35,0,Wunderground v.1.15,2013-06-23 09:59:00,
2013-06-23 05:04:00,70.1,69.5,30.00,West,267,0.0,0.0,98,0.00,,,1.35,0,Wunderground v.1.15,2013-06-23 10:04:00,
2013-06-23 05:09:00,70.1,69.5,30.00,West,267,0.0,2.0,98,0.00,,,1.35,0,Wunderground v.1.15,2013-06-23 10:09:00,
2013-06-23 05:14:00,70.1,69.5,30.00,West,267,0.0,0.0,98,0.00,,,1.35,0,Wunderground v.1.15,2013-06-23 10:14:00,
2013-06-23 05:20:00,70.0,69.4,30.00,West,267,0.0,0.0,98,0.00,,,1.35,0,Wunderground v.1.15,2013-06-23 10:20:00,
2013-06-23 05:29:00,70.0,69.4,30.00,West,267,0.0,0.0,98,0.00,,,1.35,0,Wunderground v.1.15,2013-06-23 10:29:00,
2013-06-23 05:34:00,69.9,69.3,30.00,West,267,0.0,0.0,98,0.00,,,1.35,0,Wunderground v.1.15,2013-06-23 10:34:00,
2013-06-23 05:40:00,69.9,69.3,30.01,West,267,0.0,0.0,98,0.00,,,1.35,0,Wunderground v.1.15,2013-06-23 10:40:00,
2013-06-23 05:50:00,69.8,69.2,30.01,West,267,0.0,0.0,98,0.00,,,1.35,0,Wunderground v.1.15,2013-06-23 10:50:00,
2013-06-23 05:55:00,69.8,69.2,30.01,West,267,0.0,0.0,98,0.00,,,1.35,0,Wunderground v.1.15,2013-06-23 10:55:00,
2013-06-23 06:01:00,69.8,69.2,30.01,West,267,0.0,0.0,98,0.00,,,1.35,0,Wunderground v.1.15,2013-06-23 11:01:00,
2013-06-23 06:11:00,69.8,69.2,30.01,West,267,0.0,0.0,98,0.00,,,1.35,5,Wunderground v.1.15,2013-06-23 11:11:00,
2013-06-23 06:17:00,69.9,69.3,30.01,West,267,0.0,0.0,98,0.00,,,1.35,7,Wunderground v.1.15,2013-06-23 11:17:00,
2013-06-23 06:22:00,69.9,69.3,30.01,West,267,0.0,0.0,98,0.00,,,1.35,9,Wunderground v.1.15,2013-06-23 11:22:00,
2013-06-23 06:42:00,70.0,69.4,30.02,West,267,0.0,0.0,98,0.00,,,1.35,28,Wunderground v.1.15,2013-06-23 11:42:00,
2013-06-23 06:52:00,70.2,69.6,30.02,West,267,0.0,0.0,98,0.00,,,1.35,67,Wunderground v.1.15,2013-06-23 11:52:00,
2013-06-23 06:57:00,70.4,69.8,30.02,West,267,0.0,0.0,98,0.00,,,1.35,72,Wunderground v.1.15,2013-06-23 11:57:00,
2013-06-23 07:03:00,70.7,70.1,30.02,West,267,0.0,0.0,98,0.00,,,1.35,113,Wunderground v.1.15,2013-06-23 12:03:00,
2013-06-23 07:13:00,71.3,70.7,30.02,West,267,0.0,0.0,98,0.00,,,1.35,144,Wunderground v.1.15,2013-06-23 12:13:00,
2013-06-23 07:18:00,71.6,71.0,30.02,West,267,0.0,0.0,98,0.00,,,1.35,158,Wunderground v.1.15,2013-06-23 12:18:00,
2013-06-23 07:23:00,71.9,71.6,30.02,West,267,0.0,0.0,99,0.00,,,1.35,172,Wunderground v.1.15,2013-06-23 12:23:00,
2013-06-23 07:34:00,72.6,72.3,30.02,West,267,0.0,0.0,99,0.00,,,1.35,213,Wunderground v.1.15,2013-06-23 12:34:00,
2013-06-23 07:40:00,73.0,72.4,30.03,West,267,0.0,0.0,98,0.00,,,1.35,230,Wunderground v.1.15,2013-06-23 12:40:00,
2013-06-23 07:45:00,73.4,72.8,30.03,West,262,0.0,0.0,98,0.00,,,1.35,248,Wunderground v.1.15,2013-06-23 12:45:00,
2013-06-23 07:55:00,74.3,73.7,30.03,West,267,0.0,0.0,98,0.00,,,1.35,279,Wunderground v.1.15,2013-06-23 12:55:00,
2013-06-23 08:00:00,74.7,73.8,30.03,West,267,0.0,0.0,97,0.00,,,1.35,295,Wunderground v.1.15,2013-06-23 13:00:00,
2013-06-23 08:05:00,75.3,74.1,30.03,West,267,0.0,0.0,96,0.00,,,1.35,316,Wunderground v.1.15,2013-06-23 13:05:00,
2013-06-23 08:11:00,76.0,74.5,30.03,West,267,0.0,0.0,95,0.00,,,1.35,332,Wunderground v.1.15,2013-06-23 13:11:00,
2013-06-23 08:16:00,76.6,75.1,30.03,West,267,0.0,0.0,95,0.00,,,1.35,350,Wunderground v.1.15,2013-06-23 13:16:00,
2013-06-23 08:21:00,77.3,75.4,30.03,West,267,0.0,0.0,94,0.00,,,1.35,369,Wunderground v.1.15,2013-06-23 13:21:00,
2013-06-23 08:27:00,77.9,75.4,30.03,West,267,0.0,0.0,92,0.00,,,1.35,385,Wunderground v.1.15,2013-06-23 13:27:00,
2013-06-23 08:32:00,78.4,75.6,30.04,West,267,0.0,0.0,91,0.00,,,1.35,332,Wunderground v.1.15,2013-06-23 13:32:00,
2013-06-23 08:38:00,78.7,75.8,30.04,West,267,0.0,0.0,91,0.00,,,1.35,425,Wunderground v.1.15,2013-06-23 13:38:00,
2013-06-23 08:43:00,79.1,75.2,30.04,West,267,0.0,0.0,88,0.00,,,1.35,445,Wunderground v.1.15,2013-06-23 13:43:00,
2013-06-23 08:48:00,79.3,75.4,30.04,West,262,0.0,0.0,88,0.00,,,1.35,464,Wunderground v.1.15,2013-06-23 13:48:00,
2013-06-23 08:54:00,79.4,75.9,30.04,West,267,0.0,0.0,89,0.00,,,1.35,480,Wunderground v.1.15,2013-06-23 13:54:00,
2013-06-23 08:59:00,79.6,74.7,30.04,SE,137,0.0,2.0,85,0.00,,,1.35,501,Wunderground v.1.15,2013-06-23 13:59:00,
2013-06-23 09:07:00,79.8,74.5,30.05,SE,137,0.0,0.0,84,0.00,,,1.35,540,Wunderground v.1.15,2013-06-23 14:07:00,
2013-06-23 09:12:00,80.0,75.1,30.04,SE,132,0.0,0.0,85,0.00,,,1.35,557,Wunderground v.1.15,2013-06-23 14:12:00,
2013-06-23 09:17:00,80.2,74.9,30.04,SE,136,0.0,0.0,84,0.00,,,1.35,561,Wunderground v.1.15,2013-06-23 14:17:00,
2013-06-23 09:23:00,80.9,75.6,30.04,SE,136,0.0,0.0,84,0.00,,,1.35,575,Wunderground v.1.15,2013-06-23 14:23:00,
2013-06-23 09:29:00,81.3,75.6,30.04,SE,136,0.0,0.0,83,0.00,,,1.35,599,Wunderground v.1.15,2013-06-23 14:29:00,
2013-06-23 09:37:00,81.5,75.5,30.04,SE,128,0.0,0.0,82,0.00,,,1.35,724,Wunderground v.1.15,2013-06-23 14:37:00,
2013-06-23 09:43:00,81.7,75.3,30.04,SE,145,0.0,0.0,81,0.00,,,1.35,708,Wunderground v.1.15,2013-06-23 14:43:00,
2013-06-23 09:49:00,81.8,75.0,30.04,ESE,108,0.0,0.0,80,0.00,,,1.35,724,Wunderground v.1.15,2013-06-23 14:49:00,
2013-06-23 09:54:00,82.1,75.3,30.04,ESE,108,0.0,0.0,80,0.00,,,1.35,777,Wunderground v.1.15,2013-06-23 14:54:00,
2013-06-23 10:00:00,82.4,74.8,30.04,ESE,108,0.0,0.0,78,0.00,,,1.35,805,Wunderground v.1.15,2013-06-23 15:00:00,
2013-06-23 10:09:00,83.0,75.4,30.04,ESE,111,0.0,0.0,78,0.00,,,1.35,406,Wunderground v.1.15,2013-06-23 15:09:00,
2013-06-23 10:19:00,83.3,75.3,30.04,ESE,111,0.0,1.0,77,0.00,,,1.35,828,Wunderground v.1.15,2013-06-23 15:19:00,
2013-06-23 10:29:00,83.3,73.7,30.04,East,79,1.0,2.0,73,0.00,,,1.35,865,Wunderground v.1.15,2013-06-23 15:29:00,
2013-06-23 10:39:00,83.9,74.7,30.05,East,100,0.0,1.0,74,0.00,,,1.35,854,Wunderground v.1.15,2013-06-23 15:39:00,
2013-06-23 11:00:00,83.4,73.4,30.05,East,92,1.0,1.0,72,0.00,,,1.35,870,Wunderground v.1.15,2013-06-23 16:00:00,
2013-06-23 11:21:00,84.6,73.3,30.05,ENE,73,1.0,4.0,69,0.00,,,1.35,933,Wunderground v.1.15,2013-06-23 16:21:00,
2013-06-23 11:32:00,84.3,73.0,30.05,East,91,1.0,3.0,69,0.00,,,1.35,891,Wunderground v.1.15,2013-06-23 16:32:00,
2013-06-23 11:42:00,84.5,71.9,30.05,ESE,114,1.0,5.0,66,0.00,,,1.35,976,Wunderground v.1.15,2013-06-23 16:42:00,
2013-06-23 11:53:00,84.9,72.3,30.05,ENE,75,0.0,2.0,66,0.00,,,0.00,1002,Wunderground v.1.15,2013-06-23 16:53:00,
2013-06-23 12:03:00,85.0,73.7,30.04,SE,142,0.0,2.0,69,0.00,,,0.00,1021,Wunderground v.1.15,2013-06-23 17:03:00,
2013-06-23 12:04:00,85.0,73.3,30.04,SE,141,0.0,2.0,68,0.00,,,0.00,1002,Wunderground v.1.15,2013-06-23 17:04:00,
2013-06-23 12:13:00,85.6,73.8,30.04,SE,144,0.0,3.0,68,0.00,,,0.00,566,Wunderground v.1.15,2013-06-23 17:13:00,
2013-06-23 12:34:00,86.0,71.5,30.03,East,94,0.0,1.0,62,0.00,,,0.00,1002,Wunderground v.1.15,2013-06-23 17:34:00,
2013-06-23 12:45:00,86.2,72.6,30.03,ENE,61,0.0,1.0,64,0.00,,,0.00,990,Wunderground v.1.15,2013-06-23 17:45:00,
2013-06-23 12:55:00,86.4,71.4,30.02,ENE,73,1.0,1.0,61,0.00,,,0.00,990,Wunderground v.1.15,2013-06-23 17:55:00,
2013-06-23 13:05:00,87.1,70.5,30.01,ESE,114,0.0,0.0,58,0.00,,,0.00,1009,Wunderground v.1.15,2013-06-23 18:05:00,
2013-06-23 13:16:00,87.3,71.2,30.01,ESE,116,0.0,0.0,59,0.00,,,0.00,983,Wunderground v.1.15,2013-06-23 18:16:00,
2013-06-23 13:26:00,87.7,70.6,30.01,SE,142,0.0,0.0,57,0.00,,,0.00,990,Wunderground v.1.15,2013-06-23 18:26:00,
2013-06-23 13:36:00,88.4,70.7,30.00,SSE,147,0.0,0.0,56,0.00,,,0.00,1020,Wunderground v.1.15,2013-06-23 18:36:00,
2013-06-23 13:37:00,88.4,70.7,30.00,SE,146,0.0,0.0,56,0.00,,,0.00,1021,Wunderground v.1.15,2013-06-23 18:37:00,
2013-06-23 13:42:00,88.3,71.1,30.00,SE,130,0.0,1.0,57,0.00,,,0.00,998,Wunderground v.1.15,2013-06-23 18:42:00,
2013-06-23 13:47:00,88.3,70.6,30.00,SE,133,0.0,1.0,56,0.00,,,0.00,991,Wunderground v.1.15,2013-06-23 18:47:00,
2013-06-23 13:52:00,88.3,71.6,30.00,ENE,59,1.0,7.0,58,0.00,,,0.00,1000,Wunderground v.1.15,2013-06-23 18:52:00,
2013-06-23 13:57:00,88.4,70.2,30.00,SSE,156,1.0,7.0,55,0.00,,,0.00,1007,Wunderground v.1.15,2013-06-23 18:57:00,
2013-06-23 14:03:00,88.7,71.0,29.99,SSE,156,0.0,1.0,56,0.00,,,0.00,1002,Wunderground v.1.15,2013-06-23 19:03:00,
2013-06-23 14:28:00,87.9,72.3,29.99,East,80,1.0,5.0,60,0.00,,,0.00,951,Wunderground v.1.15,2013-06-23 19:28:00,
2013-06-23 14:38:00,88.2,71.6,29.98,SE,140,1.0,3.0,58,0.00,,,0.00,960,Wunderground v.1.15,2013-06-23 19:38:00,
2013-06-23 14:51:00,89.0,70.7,29.98,SE,127,1.0,2.0,55,0.00,,,0.00,926,Wunderground v.1.15,2013-06-23 19:51:00,
2013-06-23 15:04:00,88.7,72.5,29.98,SE,129,1.0,4.0,59,0.00,,,0.00,895,Wunderground v.1.15,2013-06-23 20:04:00,
2013-06-23 15:16:00,89.2,70.9,29.97,ESE,119,1.0,3.0,55,0.00,,,0.00,875,Wunderground v.1.15,2013-06-23 20:16:00,
2013-06-23 15:25:00,89.5,72.8,29.97,ESE,119,1.0,1.0,58,0.00,,,0.00,740,Wunderground v.1.15,2013-06-23 20:25:00,
2013-06-23 15:35:00,89.2,71.5,29.98,ESE,110,1.0,1.0,56,0.00,,,0.00,195,Wunderground v.1.15,2013-06-23 20:35:00,
2013-06-23 15:45:00,89.2,72.0,29.97,ESE,112,1.0,3.0,57,0.00,,,0.00,912,Wunderground v.1.15,2013-06-23 20:45:00,
2013-06-23 15:55:00,88.6,72.4,29.97,SE,139,2.0,6.0,59,0.00,,,0.00,214,Wunderground v.1.15,2013-06-23 20:55:00,
2013-06-23 16:01:00,87.6,73.0,29.97,SE,138,1.0,1.0,62,0.00,,,0.00,186,Wunderground v.1.15,2013-06-23 21:01:00,
2013-06-23 16:06:00,86.8,74.5,29.98,SSE,164,0.0,1.0,67,0.00,,,0.00,241,Wunderground v.1.15,2013-06-23 21:06:00,
2013-06-23 16:11:00,86.3,74.5,29.97,SSE,164,0.0,0.0,68,0.00,,,0.00,770,Wunderground v.1.15,2013-06-23 21:11:00,
2013-06-23 16:16:00,86.5,75.1,29.97,SSE,151,0.0,1.0,69,0.00,,,0.00,752,Wunderground v.1.15,2013-06-23 21:16:00,
2013-06-23 16:22:00,87.1,74.4,29.97,ENE,75,0.0,5.0,66,0.00,,,0.00,722,Wunderground v.1.15,2013-06-23 21:22:00,
2013-06-23 16:27:00,87.4,74.2,29.97,SE,131,1.0,5.0,65,0.00,,,0.00,694,Wunderground v.1.15,2013-06-23 21:27:00,
2013-06-23 16:32:00,87.6,73.9,29.97,SSE,150,1.0,2.0,64,0.00,,,0.00,668,Wunderground v.1.15,2013-06-23 21:32:00,
2013-06-23 16:37:00,87.6,74.4,29.97,SSE,152,0.0,2.0,65,0.00,,,0.00,638,Wunderground v.1.15,2013-06-23 21:37:00,
2013-06-23 16:42:00,87.7,74.9,29.97,SE,128,0.0,1.0,66,0.00,,,0.00,629,Wunderground v.1.15,2013-06-23 21:42:00,
2013-06-23 16:47:00,87.9,75.1,29.97,SE,128,0.0,1.0,66,0.00,,,0.00,596,Wunderground v.1.15,2013-06-23 21:47:00,
2013-06-23 16:53:00,87.8,72.7,29.97,East,92,0.0,0.0,61,0.00,,,0.00,578,Wunderground v.1.15,2013-06-23 21:53:00,
2013-06-23 16:58:00,88.0,73.8,29.97,ESE,120,0.0,3.0,63,0.00,,,0.00,570,Wunderground v.1.15,2013-06-23 21:58:00,
2013-06-23 17:08:00,87.8,75.5,29.97,SE,125,1.0,4.0,67,0.00,,,0.00,526,Wunderground v.1.15,2013-06-23 22:08:00,
2013-06-23 17:18:00,87.8,73.2,29.98,SE,131,0.0,2.0,62,0.00,,,0.00,513,Wunderground v.1.15,2013-06-23 22:18:00,
2013-06-23 17:29:00,87.1,73.0,29.98,SE,144,2.0,8.0,63,0.00,,,0.00,483,Wunderground v.1.15,2013-06-23 22:29:00,
2013-06-23 17:40:00,87.1,73.0,29.97,SE,127,1.0,1.0,63,0.00,,,0.00,427,Wunderground v.1.15,2013-06-23 22:40:00,
2013-06-23 17:50:00,87.0,72.4,29.97,SE,127,0.0,0.0,62,0.00,,,0.00,388,Wunderground v.1.15,2013-06-23 22:50:00,
2013-06-23 18:00:00,86.7,73.1,29.98,SE,135,0.0,0.0,64,0.00,,,0.00,359,Wunderground v.1.15,2013-06-23 23:00:00,
2013-06-23 18:11:00,86.5,72.4,29.98,SE,140,0.0,0.0,63,0.00,,,0.00,322,Wunderground v.1.15,2013-06-23 23:11:00,
2013-06-23 18:21:00,86.3,72.2,29.98,SSE,152,0.0,1.0,63,0.00,,,0.00,276,Wunderground v.1.15,2013-06-23 23:21:00,
2013-06-23 18:32:00,86.1,72.0,29.98,SSE,148,0.0,0.0,63,0.00,,,0.00,241,Wunderground v.1.15,2013-06-23 23:32:00,
2013-06-23 18:37:00,85.9,71.4,29.98,ESE,115,0.0,1.0,62,0.00,,,0.00,221,Wunderground v.1.15,2013-06-23 23:37:00,
2013-06-23 18:42:00,85.7,72.1,29.98,SE,132,0.0,0.0,64,0.00,,,0.00,202,Wunderground v.1.15,2013-06-23 23:42:00,
2013-06-23 18:52:00,85.8,73.1,29.96,SE,140,0.0,0.0,66,0.00,,,0.00,165,Wunderground v.1.15,2013-06-23 23:52:00,
2013-06-23 18:58:00,85.7,72.6,29.97,SE,136,0.0,0.0,65,0.00,,,0.00,146,Wunderground v.1.15,2013-06-23 23:58:00,
2013-06-23 19:03:00,85.5,72.8,29.97,SE,140,0.0,0.0,66,0.00,,,0.00,128,Wunderground v.1.15,2013-06-24 00:03:00,
2013-06-23 19:13:00,85.0,72.8,29.97,SSE,159,1.0,6.0,67,0.00,,,0.00,97,Wunderground v.1.15,2013-06-24 00:13:00,
2013-06-23 19:18:00,84.6,73.3,29.97,SSE,163,0.0,6.0,69,0.00,,,0.00,83,Wunderground v.1.15,2013-06-24 00:18:00,
2013-06-23 19:24:00,84.2,73.3,29.97,SSE,147,0.0,0.0,70,0.00,,,0.00,69,Wunderground v.1.15,2013-06-24 00:24:00,
2013-06-23 19:34:00,83.3,74.1,29.97,East,91,0.0,0.0,74,0.00,,,0.00,42,Wunderground v.1.15,2013-06-24 00:34:00,
2013-06-23 19:40:00,82.5,74.2,29.97,SSE,152,0.0,0.0,76,0.00,,,0.00,33,Wunderground v.1.15,2013-06-24 00:40:00,
2013-06-23 19:45:00,82.0,74.1,29.97,SE,144,0.0,0.0,77,0.00,,,0.00,23,Wunderground v.1.15,2013-06-24 00:45:00,
2013-06-23 19:55:00,81.1,74.0,29.98,SE,138,0.0,0.0,79,0.00,,,0.00,12,Wunderground v.1.15,2013-06-24 00:55:00,
2013-06-23 20:06:00,80.3,73.9,29.99,SE,144,0.0,0.0,81,0.00,,,0.00,5,Wunderground v.1.15,2013-06-24 01:06:00,
2013-06-23 20:12:00,80.0,74.0,29.99,SSE,158,0.0,0.0,82,0.00,,,0.00,0,Wunderground v.1.15,2013-06-24 01:12:00,
2013-06-23 20:18:00,79.8,73.8,30.00,SSE,154,0.0,0.0,82,0.00,,,0.00,0,Wunderground v.1.15,2013-06-24 01:18:00,
2013-06-23 20:23:00,79.6,74.0,30.00,SSW,208,0.0,0.0,83,0.00,,,0.00,0,Wunderground v.1.15,2013-06-24 01:23:00,
2013-06-23 20:29:00,79.3,73.7,30.00,SE,126,0.0,2.0,83,0.00,,,0.00,0,Wunderground v.1.15,2013-06-24 01:29:00,
2013-06-23 20:44:00,78.8,73.6,30.00,SE,127,0.0,0.0,84,0.00,,,0.00,0,Wunderground v.1.15,2013-06-24 01:44:00,
2013-06-23 20:50:00,78.7,73.8,30.00,SE,127,0.0,0.0,85,0.00,,,0.00,0,Wunderground v.1.15,2013-06-24 01:50:00,
2013-06-23 20:55:00,78.5,73.6,30.01,SE,127,0.0,0.0,85,0.00,,,0.00,0,Wunderground v.1.15,2013-06-24 01:55:00,
2013-06-23 21:01:00,78.1,73.6,30.00,SE,127,0.0,0.0,86,0.00,,,0.00,0,Wunderground v.1.15,2013-06-24 02:01:00,
2013-06-23 21:15:00,77.6,73.4,30.01,SE,127,0.0,0.0,87,0.00,,,0.00,0,Wunderground v.1.15,2013-06-24 02:15:00,
2013-06-23 21:20:00,77.5,73.3,30.01,SE,127,0.0,0.0,87,0.00,,,0.00,0,Wunderground v.1.15,2013-06-24 02:20:00,
2013-06-23 21:25:00,77.3,73.5,30.00,SE,127,0.0,0.0,88,0.00,,,0.00,0,Wunderground v.1.15,2013-06-24 02:25:00,
2013-06-23 21:36:00,77.0,73.2,30.00,SE,127,0.0,0.0,88,0.00,,,0.00,0,Wunderground v.1.15,2013-06-24 02:36:00,
2013-06-23 21:41:00,76.8,73.3,30.01,SE,127,0.0,0.0,89,0.00,,,0.00,0,Wunderground v.1.15,2013-06-24 02:41:00,
2013-06-23 21:46:00,76.6,73.1,30.01,SE,127,0.0,0.0,89,0.00,,,0.00,0,Wunderground v.1.15,2013-06-24 02:46:00,
2013-06-23 21:51:00,76.5,73.3,30.01,SE,127,0.0,0.0,90,0.00,,,0.00,0,Wunderground v.1.15,2013-06-24 02:51:00,
2013-06-23 21:57:00,76.3,73.1,30.01,SE,127,0.0,0.0,90,0.00,,,0.00,0,Wunderground v.1.15,2013-06-24 02:57:00,
2013-06-23 22:02:00,76.2,73.1,30.02,SE,127,0.0,0.0,90,0.00,,,0.00,0,Wunderground v.1.15,2013-06-24 03:02:00,
2013-06-23 22:07:00,76.1,73.0,30.02,SE,127,0.0,0.0,90,0.00,,,0.00,0,Wunderground v.1.15,2013-06-24 03:07:00,
2013-06-23 22:13:00,75.9,73.1,30.02,SE,127,0.0,0.0,91,0.00,,,0.00,0,Wunderground v.1.15,2013-06-24 03:13:00,
2013-06-23 22:18:00,75.8,73.0,30.02,SE,127,0.0,0.0,91,0.00,,,0.00,0,Wunderground v.1.15,2013-06-24 03:18:00,
2013-06-23 22:23:00,75.6,72.8,30.02,SE,127,0.0,0.0,91,0.00,,,0.00,0,Wunderground v.1.15,2013-06-24 03:23:00,
2013-06-23 22:28:00,75.4,72.6,30.02,SE,127,0.0,0.0,91,0.00,,,0.00,0,Wunderground v.1.15,2013-06-24 03:28:00,
2013-06-23 22:33:00,75.3,72.5,30.03,SE,127,0.0,0.0,91,0.00,,,0.00,0,Wunderground v.1.15,2013-06-24 03:33:00,
2013-06-23 22:38:00,75.2,72.4,30.03,SE,127,0.0,0.0,91,0.00,,,0.00,0,Wunderground v.1.15,2013-06-24 03:38:00,
2013-06-23 22:43:00,75.1,72.6,30.03,SE,127,0.0,0.0,92,0.00,,,0.00,0,Wunderground v.1.15,2013-06-24 03:43:00,
2013-06-23 22:49:00,74.9,72.1,30.03,SE,127,0.0,0.0,91,0.00,,,0.00,0,Wunderground v.1.15,2013-06-24 03:49:00,
2013-06-23 22:54:00,74.8,72.0,30.03,SE,127,0.0,0.0,91,0.00,,,0.00,0,Wunderground v.1.15,2013-06-24 03:54:00,
2013-06-23 22:59:00,74.6,72.1,30.03,SE,127,0.0,0.0,92,0.00,,,0.00,0,Wunderground v.1.15,2013-06-24 03:59:00,
2013-06-23 23:01:00,74.6,72.1,30.03,SE,127,0.0,0.0,92,0.00,,,0.00,0,Wunderground v.1.15,2013-06-24 04:01:00,
2013-06-23 23:03:00,74.5,72.0,30.03,SE,127,0.0,0.0,92,0.00,,,0.00,0,Wunderground v.1.15,2013-06-24 04:03:00,
2013-06-23 23:04:00,74.5,72.0,30.04,SE,127,0.0,0.0,92,0.00,,,0.00,0,Wunderground v.1.15,2013-06-24 04:04:00,
2013-06-23 23:05:00,74.4,71.9,30.04,SE,127,0.0,0.0,92,0.00,,,0.00,0,Wunderground v.1.15,2013-06-24 04:05:00,
2013-06-23 23:28:00,74.1,71.6,30.03,SE,127,0.0,0.0,92,0.00,,,0.00,0,Wunderground v.1.15,2013-06-24 04:28:00,
2013-06-23 23:30:00,74.0,71.8,30.03,SE,127,0.0,0.0,93,0.00,,,0.00,0,Wunderground v.1.15,2013-06-24 04:30:00,
2013-06-23 23:38:00,73.9,71.7,30.04,SE,127,0.0,0.0,93,0.00,,,0.00,0,Wunderground v.1.15,2013-06-24 04:38:00,
2013-06-23 23:48:00,73.7,71.5,30.04,SE,127,0.0,0.0,93,0.00,,,0.00,0,Wunderground v.1.15,2013-06-24 04:48:00,